Need help?(800) 881-5068

Baltimore Windshield Replacement? Get Auto Glass Quotes Instantly!

1
Complete this free and simple quote form
2
Compare competitive quotes from local pros
3
Instantly schedule your service and save $$$
Compare Prices
City of Baltimore Skyline Baltimore City Seal Auto Glass Parts Guide -Shows Various Auto Glass Parts On A Vehicle

Baltimore Windshield Replacement



Baltimore General Information

Baltimore Windshield Replacement Pictures

About Baltimore Windshield Replacement

City of Baltimore Skyline






Baltimore General Information

  • Reference: Baltimore, MD Wikipedia Page
  • Population: 2.6M
  • Nearby Cities: Catonsville, Ellicot City, Milford Mill, Pikesville, Owings Mills, Hampton, Towson, Carney, Overlea, Rosedale, Dundalk, Rossville, Edgemere, Locheam, Randallstown
  • Zips: 21201–21231, 21233–21237, 21239–21241, 21244, 21250–21252, 21263–21265, 21268, 21270, 21273–21275, 21278–21290, 21297–21298
  • Common Vehicles: Sedans and SUV’s
  • Car Window Hazards: Extreme cold, road debris, new construction

Baltimore Windshield Replacement Pictures


Broken Windshield in Baltimore Maryland, step 1: Removing the Windshield Baltimore Windshield Replacement, step 2: Prepare to Install New Windshield Installing Windshield in Baltimore MD, step 3: Setting New Windshield New Car Windshield in Baltimore, step 4: Clean & Present to Customer

Baltimore Windshield Replacement

When car window glass is broken, or when an electric window motor stops working, which Baltimore, MD auto glass replacement service should you choose? At Auto Glass Quotez you can find the best and most reliable auto glass companies that offer multiple services at affordable rates. You can find and compare different car window replacement companies before you choose one that best fits you.

Vandalism and car burglaries

Windshield glass is made of strong, laminated material that cannot be easily broken. This leaves door glass as an easy target for destructive theft in the Baltimore area. Car burglars, who often target expensive luxury cars, tend to damage vehicle door glass with the hope of finding valuables inside. When you have a broken window or an improperly closed car window, burglars are tempted to peek inside the vehicle and eventually break the glass to steal any treasures. Unfortunately, incidents like break-ins can’t be prevented.

Need for car window replacement

Unlike windshield glass, door window glass is made with a tempered material that shatters with force. Therefore, damage on a car window, like a chip or a crack, cannot be fixed like windshield chips and cracks. For this reason, auto glass window repair means a replacement completed by removing the car door panel. Replacing car windows is a complicated process and should be carefully executed by an experienced technician to prevent glass breakage during installation.

The inconvenience of faulty power windows

A faulty power window can be extremely annoying at any time but especially during seasonal weather occurrences. A power window includes the inner workings of an elevator, motor and regulator. If either of these parts stops working, the entire unit must be replaced. The best way to ensure window glass and electrical window components are properly installed is to let a professional Baltimore, MD car window replacement service handle the task.

Finding a professional company for car window replacement

The best way to ensure window glass and electrical window components are properly installed is to let a professional Baltimore, MD car window replacement service handle the task. At Auto Glass Quotez, you can find, compare and choose a number of auto glass companies that provide your needed services at affordable rates.

By

Baltimore Most Recent Auto Glass & Windshield Costs


Date Zipcode Year Make Model Part Price
04/21/2019 22:14 21223 2003 Acura MDX Windshield $288.61 - $319.82
04/21/2019 10:40 21771 2006 Scion xB Windshield $206.78 - $237.99
04/20/2019 19:15 21224 2009 Hyundai Santa Fe Back Glass $287.60 - $318.81
04/18/2019 12:30 21133 2002 Toyota Camry 4 Door Sedan Windshield $199.24 - $230.45
04/17/2019 08:23 21133 2002 Lexus ES 300 Windshield $212.16 - $243.37
04/13/2019 16:52 21215 2005 Acura MDX Windshield $288.61 - $319.82
04/12/2019 16:10 21222 2000 Toyota Camry 4 Door Sedan Windshield $192.21 - $223.42
04/12/2019 16:06 21222 2000 Toyota Camry 4 Door Sedan Windshield $192.21 - $223.42
04/11/2019 22:52 21218 2015 Kia Soul *I Can't Find My Part Pricing - N/A
04/10/2019 14:47 21218 2015 Kia Soul *I Can't Find My Part Pricing - N/A
04/10/2019 07:51 21227 2003 GMC Yukon Denali Windshield $194.79 - $226.00
04/10/2019 07:50 21227 2003 GMC Yukon Denali Windshield $194.79 - $226.00
04/08/2019 09:55 21222 2006 Jeep Grand Cherokee Windshield $216.62 - $247.83
04/05/2019 20:14 21215 2003 Honda Accord 2 Door Coupe Windshield $218.75 - $249.96
04/05/2019 17:52 21208 2006 Ford Econoline 3 Door Van Windshield $211.16 - $242.37
04/05/2019 17:51 21208 2006 Ford Econoline 3 Door Van Windshield $211.16 - $242.37
04/05/2019 15:17 21215 2003 Honda Accord 2 Door Coupe Windshield $218.75 - $249.96
04/05/2019 11:48 21085 2001 Chevrolet Silverado C1500 2 Door Standard Cab Windshield $194.79 - $226.00
04/04/2019 09:49 21117 2014 Nissan Versa 4 Door Sedan *I Can't Find My Part Pricing - N/A
04/03/2019 10:17 21229 2005 Toyota Camry 4 Door Sedan Windshield $199.24 - $230.45
04/02/2019 12:57 21204 2007 Volvo XC90 Windshield $265.69 - $296.90
04/01/2019 20:23 21216 2010 Chevrolet Express Van Front Driver's Side Glass $196.97 - $228.18
03/31/2019 14:55 21117 2011 BMW 750 Front Passenger's Side Door Glass Pricing - N/A
03/28/2019 16:08 21771 2012 Jeep Liberty Windshield $216.62 - $247.83
03/26/2019 10:27 21224 2005 Toyota Tacoma 2 Door Standard Cab Front Passenger's Side Door Glass $211.16 - $242.37
03/26/2019 06:27 21771 2010 GMC Sierra C1500 2 Door Extended Cab Windshield $199.15 - $230.36
03/23/2019 08:31 21234 2004 Honda Civic 4 Door Sedan Windshield $194.79 - $226.00
03/21/2019 00:21 21225 2010 Hyundai Elantra 4 Door Sedan Front Driver's Side Door Glass $200.25 - $231.46
03/21/2019 00:18 21225 2010 Hyundai Elantra 4 Door Sedan Front Driver's Side Door Glass $200.25 - $231.46
03/18/2019 20:52 21133 2013 Hyundai Santa Fe Sport *I Can't Find My Part Pricing - N/A
03/15/2019 22:24 21102 1993 Chevrolet Pickup C1500 Standard Cab Windshield $205.71 - $236.92
03/15/2019 09:04 21223 2005 Lexus ES 330 Back Glass $1574.03 - $1684.88
03/13/2019 11:24 21053 2005 Toyota Camry 4 Door Sedan Windshield $199.24 - $230.45
03/13/2019 10:09 21211 2010 Honda Fit Windshield $254.74 - $285.95
03/11/2019 20:32 21215 2008 BMW X5 Back Glass $629.61 - $673.95
03/11/2019 17:11 21030 2006 Toyota Matrix Windshield $204.31 - $235.52
03/10/2019 22:58 21122 2007 Hyundai Elantra 4 Door Sedan Windshield $247.15 - $278.36
03/10/2019 22:10 21117 2005 Mercedes-Benz CLK320 2 Door Convertible *I Can't Find My Part Pricing - N/A
03/10/2019 12:27 21209 2009 Honda Fit Windshield $254.74 - $285.95
03/06/2019 01:16 21206 2013 Nissan Altima 4 Door Sedan Windshield $303.98 - $335.19
03/04/2019 16:46 21239 2007 GMC Yukon Denali Windshield $199.15 - $230.36
03/03/2019 21:24 21619 2000 Dodge 1500 Pickup 2 Door Club Cab Windshield $201.34 - $232.55
03/02/2019 19:29 21206 2013 Nissan Altima 4 Door Sedan Windshield $303.98 - $335.19
02/28/2019 11:04 21212 1999 Ford Contour Windshield $222.08 - $253.29
02/21/2019 23:10 21234 1999 Freightliner Century Class C120 Windshield - Driver's Side $186.05 - $217.26
02/19/2019 15:49 21219 2009 Dodge 1500 Pickup 2 Door Standard Cab Windshield $254.84 - $286.05
02/13/2019 13:45 21234 2012 Toyota Camry 4 Door Sedan Windshield $361.75 - $392.96
02/08/2019 22:05 21229 2008 Nissan Maxima 4 Door Sedan Windshield $200.39 - $231.60
02/07/2019 14:20 21204 2008 MINI Cooper 2 Door Hatchback Windshield - Rain Sensor $256.10 - $287.31
02/07/2019 08:24 21012 2009 MINI Cooper Clubman Windshield - Rain Sensor $256.10 - $287.31

Testimonials

Holli Sisk
-I love using the website plugin that offers custom quoting to my customers 24/7! I have more business than ever before! Thanks AGQZ!
Savannah Weaver
-As a small business owner, making your business name stand out in the sea of Google can be depressing. I've been using Auto Glass Quotez for about 2 months now and have had countless leads. I don't know what I did before! You're an idiot if you don't want to use this great service you can only benefit from.
Dario Zadro
-I really enjoyed designing and developing this massive project! The team at AGQZ has been awesome to work with, and they have put so much thought into the details for both the visitor and vendor when it comes to the UX for auto glass quotes. The back-end CRM has all the bells and whistles including charting, billing, and so much more! I look forward to this site becoming the industry leader in the auto glass field.

Baltimore Auto Glass Companies Directory


Company Address City State Zip Phone Reviews
AUTO GLASS MASTERS LLC 200 ARUNDEL CORP RD GLEN BURNIE MD 21060 (410) 766-9909
1 Reviews